sensor_id;sensor_type;location;lat;lon;timestamp;temperature;humidity
74537;SHT31;63013;51.104;-115.370;2022-12-29T00:00:19;22.21;32.66
74537;SHT31;63013;51.104;-115.370;2022-12-29T00:02:46;22.21;32.65
74537;SHT31;63013;51.104;-115.370;2022-12-29T00:05:14;22.23;32.67
74537;SHT31;63013;51.104;-115.370;2022-12-29T00:07:41;22.23;32.64
74537;SHT31;63013;51.104;-115.370;2022-12-29T00:10:08;22.23;32.66
74537;SHT31;63013;51.104;-115.370;2022-12-29T00:12:35;22.23;32.68
74537;SHT31;63013;51.104;-115.370;2022-12-29T00:15:20;22.23;32.64
74537;SHT31;63013;51.104;-115.370;2022-12-29T00:18:03;22.24;32.63
74537;SHT31;63013;51.104;-115.370;2022-12-29T00:20:32;22.25;32.63
74537;SHT31;63013;51.104;-115.370;2022-12-29T00:23:20;22.24;32.62
74537;SHT31;63013;51.104;-115.370;2022-12-29T00:26:13;22.25;32.60
74537;SHT31;63013;51.104;-115.370;2022-12-29T00:29:00;22.25;32.61
74537;SHT31;63013;51.104;-115.370;2022-12-29T00:31:45;22.26;32.66
74537;SHT31;63013;51.104;-115.370;2022-12-29T00:34:31;22.26;32.63
74537;SHT31;63013;51.104;-115.370;2022-12-29T00:37:17;22.26;32.65
74537;SHT31;63013;51.104;-115.370;2022-12-29T00:40:04;22.27;32.67
74537;SHT31;63013;51.104;-115.370;2022-12-29T00:42:50;22.26;32.66
74537;SHT31;63013;51.104;-115.370;2022-12-29T00:45:35;22.27;32.65
74537;SHT31;63013;51.104;-115.370;2022-12-29T00:48:05;22.28;32.64
74537;SHT31;63013;51.104;-115.370;2022-12-29T00:50:33;22.30;32.67
74537;SHT31;63013;51.104;-115.370;2022-12-29T00:53:01;22.30;32.72
74537;SHT31;63013;51.104;-115.370;2022-12-29T00:55:28;22.31;32.82
74537;SHT31;63013;51.104;-115.370;2022-12-29T00:57:56;22.32;32.93
74537;SHT31;63013;51.104;-115.370;2022-12-29T01:00:24;22.32;33.14
74537;SHT31;63013;51.104;-115.370;2022-12-29T01:02:52;22.34;33.20
74537;SHT31;63013;51.104;-115.370;2022-12-29T01:05:19;22.34;33.27
74537;SHT31;63013;51.104;-115.370;2022-12-29T01:07:46;22.35;33.28
74537;SHT31;63013;51.104;-115.370;2022-12-29T01:10:14;22.36;33.26
74537;SHT31;63013;51.104;-115.370;2022-12-29T01:12:42;22.37;33.25
74537;SHT31;63013;51.104;-115.370;2022-12-29T01:15:11;22.36;33.21
74537;SHT31;63013;51.104;-115.370;2022-12-29T01:17:40;22.37;33.22
74537;SHT31;63013;51.104;-115.370;2022-12-29T01:20:08;22.36;33.26
74537;SHT31;63013;51.104;-115.370;2022-12-29T01:22:36;22.37;33.29
74537;SHT31;63013;51.104;-115.370;2022-12-29T01:25:04;22.35;33.28
74537;SHT31;63013;51.104;-115.370;2022-12-29T01:27:33;22.35;33.26
74537;SHT31;63013;51.104;-115.370;2022-12-29T01:30:01;22.34;33.23
74537;SHT31;63013;51.104;-115.370;2022-12-29T01:32:29;22.34;33.20
74537;SHT31;63013;51.104;-115.370;2022-12-29T01:34:56;22.33;33.21
74537;SHT31;63013;51.104;-115.370;2022-12-29T01:37:23;22.32;33.18
74537;SHT31;63013;51.104;-115.370;2022-12-29T01:39:51;22.32;33.12
74537;SHT31;63013;51.104;-115.370;2022-12-29T01:42:19;22.31;33.13
74537;SHT31;63013;51.104;-115.370;2022-12-29T01:44:55;22.30;33.10
74537;SHT31;63013;51.104;-115.370;2022-12-29T01:47:29;22.28;33.10
74537;SHT31;63013;51.104;-115.370;2022-12-29T01:50:23;22.26;33.10
74537;SHT31;63013;51.104;-115.370;2022-12-29T01:53:08;22.24;33.10
74537;SHT31;63013;51.104;-115.370;2022-12-29T01:56:01;22.23;33.09
74537;SHT31;63013;51.104;-115.370;2022-12-29T01:58:37;22.22;33.09
74537;SHT31;63013;51.104;-115.370;2022-12-29T02:01:09;22.21;33.07
74537;SHT31;63013;51.104;-115.370;2022-12-29T02:03:37;22.20;33.01
74537;SHT31;63013;51.104;-115.370;2022-12-29T02:06:10;22.19;33.02
74537;SHT31;63013;51.104;-115.370;2022-12-29T02:08:52;22.17;32.99
74537;SHT31;63013;51.104;-115.370;2022-12-29T02:11:23;22.15;32.99
74537;SHT31;63013;51.104;-115.370;2022-12-29T02:13:54;22.14;32.99
74537;SHT31;63013;51.104;-115.370;2022-12-29T02:26:00;22.06;32.99
74537;SHT31;63013;51.104;-115.370;2022-12-29T02:29:13;22.04;33.00
74537;SHT31;63013;51.104;-115.370;2022-12-29T02:38:46;21.97;33.00
74537;SHT31;63013;51.104;-115.370;2022-12-29T02:42:07;21.95;33.00
74537;SHT31;63013;51.104;-115.370;2022-12-29T02:53:13;21.88;33.04
74537;SHT31;63013;51.104;-115.370;2022-12-29T02:56:04;21.84;33.06
74537;SHT31;63013;51.104;-115.370;2022-12-29T02:58:32;21.83;33.04
74537;SHT31;63013;51.104;-115.370;2022-12-29T03:09:31;21.75;33.05
74537;SHT31;63013;51.104;-115.370;2022-12-29T03:12:40;21.75;33.07
74537;SHT31;63013;51.104;-115.370;2022-12-29T03:15:56;21.72;33.08
74537;SHT31;63013;51.104;-115.370;2022-12-29T03:19:07;21.69;33.05
74537;SHT31;63013;51.104;-115.370;2022-12-29T03:22:24;21.68;33.09
74537;SHT31;63013;51.104;-115.370;2022-12-29T03:25:10;21.66;33.07
74537;SHT31;63013;51.104;-115.370;2022-12-29T03:27:56;21.64;33.06
74537;SHT31;63013;51.104;-115.370;2022-12-29T03:30:32;21.63;33.02
74537;SHT31;63013;51.104;-115.370;2022-12-29T03:33:03;21.62;33.00
74537;SHT31;63013;51.104;-115.370;2022-12-29T03:35:36;21.60;32.99
74537;SHT31;63013;51.104;-115.370;2022-12-29T03:40:56;21.57;32.93
74537;SHT31;63013;51.104;-115.370;2022-12-29T03:43:29;21.56;32.95
74537;SHT31;63013;51.104;-115.370;2022-12-29T03:45:57;21.56;32.92
74537;SHT31;63013;51.104;-115.370;2022-12-29T03:48:25;21.53;32.91
74537;SHT31;63013;51.104;-115.370;2022-12-29T03:50:52;21.52;32.90
74537;SHT31;63013;51.104;-115.370;2022-12-29T03:53:19;21.50;32.89
74537;SHT31;63013;51.104;-115.370;2022-12-29T03:55:47;21.48;32.88
74537;SHT31;63013;51.104;-115.370;2022-12-29T03:58:14;21.47;32.90
74537;SHT31;63013;51.104;-115.370;2022-12-29T04:00:42;21.45;32.86
74537;SHT31;63013;51.104;-115.370;2022-12-29T04:03:09;21.44;32.85
74537;SHT31;63013;51.104;-115.370;2022-12-29T04:05:36;21.43;32.81
74537;SHT31;63013;51.104;-115.370;2022-12-29T04:08:03;21.40;32.86
74537;SHT31;63013;51.104;-115.370;2022-12-29T04:10:31;21.39;32.80
74537;SHT31;63013;51.104;-115.370;2022-12-29T04:12:58;21.37;32.81
74537;SHT31;63013;51.104;-115.370;2022-12-29T04:15:25;21.35;32.80
74537;SHT31;63013;51.104;-115.370;2022-12-29T04:17:52;21.34;32.77
74537;SHT31;63013;51.104;-115.370;2022-12-29T04:20:19;21.32;32.79
74537;SHT31;63013;51.104;-115.370;2022-12-29T04:23:05;21.31;32.78
74537;SHT31;63013;51.104;-115.370;2022-12-29T04:25:33;21.28;32.78
74537;SHT31;63013;51.104;-115.370;2022-12-29T04:28:00;21.27;32.76
74537;SHT31;63013;51.104;-115.370;2022-12-29T04:30:27;21.25;32.73
74537;SHT31;63013;51.104;-115.370;2022-12-29T04:32:54;21.23;32.71
74537;SHT31;63013;51.104;-115.370;2022-12-29T04:35:22;21.22;32.73
74537;SHT31;63013;51.104;-115.370;2022-12-29T04:37:49;21.19;32.72
74537;SHT31;63013;51.104;-115.370;2022-12-29T04:40:16;21.18;32.72
74537;SHT31;63013;51.104;-115.370;2022-12-29T04:42:43;21.16;32.70
74537;SHT31;63013;51.104;-115.370;2022-12-29T04:45:11;21.14;32.70
74537;SHT31;63013;51.104;-115.370;2022-12-29T04:47:38;21.12;32.70
74537;SHT31;63013;51.104;-115.370;2022-12-29T04:50:06;21.10;32.72
74537;SHT31;63013;51.104;-115.370;2022-12-29T04:52:34;21.08;32.70
74537;SHT31;63013;51.104;-115.370;2022-12-29T04:55:02;21.08;32.70
74537;SHT31;63013;51.104;-115.370;2022-12-29T04:57:31;21.05;32.70
74537;SHT31;63013;51.104;-115.370;2022-12-29T04:59:58;21.04;32.70
74537;SHT31;63013;51.104;-115.370;2022-12-29T05:02:26;21.03;32.70
74537;SHT31;63013;51.104;-115.370;2022-12-29T05:04:53;21.01;32.70
74537;SHT31;63013;51.104;-115.370;2022-12-29T05:07:20;20.99;32.70
74537;SHT31;63013;51.104;-115.370;2022-12-29T05:09:47;20.97;32.66
74537;SHT31;63013;51.104;-115.370;2022-12-29T05:12:14;20.96;32.69
74537;SHT31;63013;51.104;-115.370;2022-12-29T05:14:41;20.94;32.68
74537;SHT31;63013;51.104;-115.370;2022-12-29T05:17:08;20.93;32.63
74537;SHT31;63013;51.104;-115.370;2022-12-29T05:19:36;20.91;32.67
74537;SHT31;63013;51.104;-115.370;2022-12-29T05:22:04;20.89;32.64
74537;SHT31;63013;51.104;-115.370;2022-12-29T05:24:31;20.88;32.63
74537;SHT31;63013;51.104;-115.370;2022-12-29T05:26:58;20.85;32.64
74537;SHT31;63013;51.104;-115.370;2022-12-29T05:29:25;20.85;32.60
74537;SHT31;63013;51.104;-115.370;2022-12-29T05:31:53;20.83;32.62
74537;SHT31;63013;51.104;-115.370;2022-12-29T05:34:20;20.82;32.61
74537;SHT31;63013;51.104;-115.370;2022-12-29T05:36:48;20.79;32.61
74537;SHT31;63013;51.104;-115.370;2022-12-29T05:39:15;20.79;32.60
74537;SHT31;63013;51.104;-115.370;2022-12-29T05:41:42;20.76;32.61
74537;SHT31;63013;51.104;-115.370;2022-12-29T05:44:12;20.76;32.60
74537;SHT31;63013;51.104;-115.370;2022-12-29T05:46:40;20.73;32.60
74537;SHT31;63013;51.104;-115.370;2022-12-29T05:49:07;20.72;32.60
74537;SHT31;63013;51.104;-115.370;2022-12-29T05:51:34;20.70;32.59
74537;SHT31;63013;51.104;-115.370;2022-12-29T05:54:01;20.68;32.60
74537;SHT31;63013;51.104;-115.370;2022-12-29T05:56:28;20.67;32.59
74537;SHT31;63013;51.104;-115.370;2022-12-29T05:58:55;20.66;32.59
74537;SHT31;63013;51.104;-115.370;2022-12-29T06:01:22;20.64;32.56
74537;SHT31;63013;51.104;-115.370;2022-12-29T06:03:50;20.63;32.57
74537;SHT31;63013;51.104;-115.370;2022-12-29T06:06:17;20.62;32.53
74537;SHT31;63013;51.104;-115.370;2022-12-29T06:08:44;20.60;32.52
74537;SHT31;63013;51.104;-115.370;2022-12-29T06:11:11;20.58;32.53
74537;SHT31;63013;51.104;-115.370;2022-12-29T06:13:38;20.57;32.54
74537;SHT31;63013;51.104;-115.370;2022-12-29T06:16:06;20.56;32.50
74537;SHT31;63013;51.104;-115.370;2022-12-29T06:18:33;20.55;32.54
74537;SHT31;63013;51.104;-115.370;2022-12-29T06:21:01;20.53;32.50
74537;SHT31;63013;51.104;-115.370;2022-12-29T06:23:30;20.52;32.51
74537;SHT31;63013;51.104;-115.370;2022-12-29T06:25:58;20.50;32.50
74537;SHT31;63013;51.104;-115.370;2022-12-29T06:28:25;20.49;32.50
74537;SHT31;63013;51.104;-115.370;2022-12-29T06:30:52;20.48;32.49
74537;SHT31;63013;51.104;-115.370;2022-12-29T06:33:19;20.44;32.48
74537;SHT31;63013;51.104;-115.370;2022-12-29T06:35:47;20.43;32.46
74537;SHT31;63013;51.104;-115.370;2022-12-29T06:38:14;20.42;32.45
74537;SHT31;63013;51.104;-115.370;2022-12-29T06:40:42;20.40;32.48
74537;SHT31;63013;51.104;-115.370;2022-12-29T06:43:10;20.39;32.47
74537;SHT31;63013;51.104;-115.370;2022-12-29T06:45:38;20.38;32.50
74537;SHT31;63013;51.104;-115.370;2022-12-29T06:48:06;20.35;32.49
74537;SHT31;63013;51.104;-115.370;2022-12-29T06:50:33;20.33;32.48
74537;SHT31;63013;51.104;-115.370;2022-12-29T06:53:01;20.32;32.48
74537;SHT31;63013;51.104;-115.370;2022-12-29T06:55:28;20.31;32.49
74537;SHT31;63013;51.104;-115.370;2022-12-29T06:57:58;20.28;32.48
74537;SHT31;63013;51.104;-115.370;2022-12-29T07:00:26;20.28;32.48
74537;SHT31;63013;51.104;-115.370;2022-12-29T07:02:54;20.26;32.49
74537;SHT31;63013;51.104;-115.370;2022-12-29T07:05:26;20.25;32.48
74537;SHT31;63013;51.104;-115.370;2022-12-29T07:07:53;20.24;32.46
74537;SHT31;63013;51.104;-115.370;2022-12-29T07:10:21;20.22;32.48
74537;SHT31;63013;51.104;-115.370;2022-12-29T07:12:49;20.20;32.47
74537;SHT31;63013;51.104;-115.370;2022-12-29T07:15:16;20.18;32.46
74537;SHT31;63013;51.104;-115.370;2022-12-29T07:17:44;20.17;32.49
74537;SHT31;63013;51.104;-115.370;2022-12-29T07:20:11;20.16;32.46
74537;SHT31;63013;51.104;-115.370;2022-12-29T07:22:38;20.15;32.43
74537;SHT31;63013;51.104;-115.370;2022-12-29T07:25:05;20.12;32.43
74537;SHT31;63013;51.104;-115.370;2022-12-29T07:27:33;20.10;32.41
74537;SHT31;63013;51.104;-115.370;2022-12-29T07:30:00;20.09;32.41
74537;SHT31;63013;51.104;-115.370;2022-12-29T07:32:27;20.06;32.42
74537;SHT31;63013;51.104;-115.370;2022-12-29T07:34:59;20.05;32.42
74537;SHT31;63013;51.104;-115.370;2022-12-29T07:37:26;20.03;32.43
74537;SHT31;63013;51.104;-115.370;2022-12-29T07:39:53;20.02;32.45
74537;SHT31;63013;51.104;-115.370;2022-12-29T07:42:20;20.00;32.49
74537;SHT31;63013;51.104;-115.370;2022-12-29T07:44:48;19.99;32.50
74537;SHT31;63013;51.104;-115.370;2022-12-29T07:47:15;19.96;32.45
74537;SHT31;63013;51.104;-115.370;2022-12-29T07:49:42;19.95;32.48
74537;SHT31;63013;51.104;-115.370;2022-12-29T07:52:09;19.94;32.47
74537;SHT31;63013;51.104;-115.370;2022-12-29T07:54:36;19.92;32.49
74537;SHT31;63013;51.104;-115.370;2022-12-29T07:57:04;19.92;32.46
74537;SHT31;63013;51.104;-115.370;2022-12-29T07:59:32;19.90;32.48
74537;SHT31;63013;51.104;-115.370;2022-12-29T08:01:59;19.88;32.46
74537;SHT31;63013;51.104;-115.370;2022-12-29T08:04:26;19.87;32.49
74537;SHT31;63013;51.104;-115.370;2022-12-29T08:06:53;19.84;32.49
74537;SHT31;63013;51.104;-115.370;2022-12-29T08:09:21;19.83;32.50
74537;SHT31;63013;51.104;-115.370;2022-12-29T08:11:48;19.82;32.45
74537;SHT31;63013;51.104;-115.370;2022-12-29T08:14:15;19.81;32.49
74537;SHT31;63013;51.104;-115.370;2022-12-29T08:16:43;19.79;32.44
74537;SHT31;63013;51.104;-115.370;2022-12-29T08:19:11;19.78;32.40
74537;SHT31;63013;51.104;-115.370;2022-12-29T08:21:39;19.75;32.41
74537;SHT31;63013;51.104;-115.370;2022-12-29T08:24:07;19.75;32.44
74537;SHT31;63013;51.104;-115.370;2022-12-29T08:26:35;19.72;32.47
74537;SHT31;63013;51.104;-115.370;2022-12-29T08:29:03;19.72;32.45
74537;SHT31;63013;51.104;-115.370;2022-12-29T08:31:30;19.70;32.42
74537;SHT31;63013;51.104;-115.370;2022-12-29T08:33:57;19.68;32.44
74537;SHT31;63013;51.104;-115.370;2022-12-29T08:36:26;19.66;32.49
74537;SHT31;63013;51.104;-115.370;2022-12-29T08:38:54;19.64;32.48
74537;SHT31;63013;51.104;-115.370;2022-12-29T08:41:21;19.64;32.50
74537;SHT31;63013;51.104;-115.370;2022-12-29T08:43:48;19.62;32.46
74537;SHT31;63013;51.104;-115.370;2022-12-29T08:46:16;19.60;32.45
74537;SHT31;63013;51.104;-115.370;2022-12-29T08:48:44;19.58;32.48
74537;SHT31;63013;51.104;-115.370;2022-12-29T08:51:12;19.58;32.49
74537;SHT31;63013;51.104;-115.370;2022-12-29T08:53:39;19.56;32.46
74537;SHT31;63013;51.104;-115.370;2022-12-29T08:56:08;19.55;32.49
74537;SHT31;63013;51.104;-115.370;2022-12-29T08:58:36;19.53;32.49
74537;SHT31;63013;51.104;-115.370;2022-12-29T09:01:04;19.51;32.47
74537;SHT31;63013;51.104;-115.370;2022-12-29T09:03:31;19.50;32.48
74537;SHT31;63013;51.104;-115.370;2022-12-29T09:05:58;19.48;32.49
74537;SHT31;63013;51.104;-115.370;2022-12-29T09:15:36;19.40;32.49
74537;SHT31;63013;51.104;-115.370;2022-12-29T09:18:04;19.38;32.49
74537;SHT31;63013;51.104;-115.370;2022-12-29T09:20:32;19.37;32.43
74537;SHT31;63013;51.104;-115.370;2022-12-29T09:23:00;19.35;32.41
74537;SHT31;63013;51.104;-115.370;2022-12-29T09:25:28;19.34;32.46
74537;SHT31;63013;51.104;-115.370;2022-12-29T09:27:56;19.33;32.47
74537;SHT31;63013;51.104;-115.370;2022-12-29T09:30:23;19.31;32.50
74537;SHT31;63013;51.104;-115.370;2022-12-29T09:32:50;19.29;32.48
74537;SHT31;63013;51.104;-115.370;2022-12-29T09:35:17;19.28;32.49
74537;SHT31;63013;51.104;-115.370;2022-12-29T09:37:45;19.26;32.49
74537;SHT31;63013;51.104;-115.370;2022-12-29T09:40:24;19.25;32.42
74537;SHT31;63013;51.104;-115.370;2022-12-29T09:43:05;19.23;32.51
74537;SHT31;63013;51.104;-115.370;2022-12-29T09:46:13;19.20;32.52
74537;SHT31;63013;51.104;-115.370;2022-12-29T09:51:59;19.18;32.51
74537;SHT31;63013;51.104;-115.370;2022-12-29T09:57:40;19.14;32.51
74537;SHT31;63013;51.104;-115.370;2022-12-29T10:00:33;19.13;32.52
74537;SHT31;63013;51.104;-115.370;2022-12-29T10:03:16;19.10;32.53
74537;SHT31;63013;51.104;-115.370;2022-12-29T10:05:51;19.09;32.51
74537;SHT31;63013;51.104;-115.370;2022-12-29T10:08:44;19.08;32.51
74537;SHT31;63013;51.104;-115.370;2022-12-29T10:20:33;19.01;32.47
74537;SHT31;63013;51.104;-115.370;2022-12-29T10:23:44;18.99;32.53
74537;SHT31;63013;51.104;-115.370;2022-12-29T10:26:31;18.97;32.52
74537;SHT31;63013;51.104;-115.370;2022-12-29T10:29:05;18.95;32.56
74537;SHT31;63013;51.104;-115.370;2022-12-29T10:32:04;18.94;32.55
74537;SHT31;63013;51.104;-115.370;2022-12-29T10:34:45;18.92;32.54
74537;SHT31;63013;51.104;-115.370;2022-12-29T10:40:47;18.88;32.48
74537;SHT31;63013;51.104;-115.370;2022-12-29T10:43:41;18.86;32.49
74537;SHT31;63013;51.104;-115.370;2022-12-29T10:46:20;18.85;32.53
74537;SHT31;63013;51.104;-115.370;2022-12-29T10:48:53;18.83;32.48
74537;SHT31;63013;51.104;-115.370;2022-12-29T10:51:27;18.81;32.51
74537;SHT31;63013;51.104;-115.370;2022-12-29T10:54:05;18.80;32.47
74537;SHT31;63013;51.104;-115.370;2022-12-29T10:56:44;18.80;32.54
74537;SHT31;63013;51.104;-115.370;2022-12-29T10:59:20;18.79;32.47
74537;SHT31;63013;51.104;-115.370;2022-12-29T11:04:54;18.77;32.47
74537;SHT31;63013;51.104;-115.370;2022-12-29T11:07:41;18.74;32.49
74537;SHT31;63013;51.104;-115.370;2022-12-29T11:10:18;18.72;32.46
74537;SHT31;63013;51.104;-115.370;2022-12-29T11:13:30;18.72;32.39
74537;SHT31;63013;51.104;-115.370;2022-12-29T11:15:45;18.68;32.43
74537;SHT31;63013;51.104;-115.370;2022-12-29T11:20:54;18.65;32.47
74537;SHT31;63013;51.104;-115.370;2022-12-29T11:23:31;18.64;32.48
74537;SHT31;63013;51.104;-115.370;2022-12-29T11:26:25;18.62;32.47
74537;SHT31;63013;51.104;-115.370;2022-12-29T11:31:43;18.57;32.59
74537;SHT31;63013;51.104;-115.370;2022-12-29T11:34:17;18.56;32.51
74537;SHT31;63013;51.104;-115.370;2022-12-29T11:40:18;18.52;32.57
74537;SHT31;63013;51.104;-115.370;2022-12-29T11:42:54;18.50;32.56
74537;SHT31;63013;51.104;-115.370;2022-12-29T11:45:36;18.49;32.60
74537;SHT31;63013;51.104;-115.370;2022-12-29T11:48:20;18.47;32.53
74537;SHT31;63013;51.104;-115.370;2022-12-29T11:50:51;18.46;32.59
74537;SHT31;63013;51.104;-115.370;2022-12-29T11:53:27;18.44;32.50
74537;SHT31;63013;51.104;-115.370;2022-12-29T11:56:17;18.43;32.56
74537;SHT31;63013;51.104;-115.370;2022-12-29T11:59:20;18.42;32.57
74537;SHT31;63013;51.104;-115.370;2022-12-29T12:02:00;18.40;32.62
74537;SHT31;63013;51.104;-115.370;2022-12-29T12:05:19;18.38;32.55
74537;SHT31;63013;51.104;-115.370;2022-12-29T12:08:15;18.36;32.49
74537;SHT31;63013;51.104;-115.370;2022-12-29T12:13:46;18.33;32.59
74537;SHT31;63013;51.104;-115.370;2022-12-29T12:25:20;18.25;32.60
74537;SHT31;63013;51.104;-115.370;2022-12-29T12:30:30;18.23;32.59
74537;SHT31;63013;51.104;-115.370;2022-12-29T12:33:18;18.21;32.63
74537;SHT31;63013;51.104;-115.370;2022-12-29T12:39:26;18.17;32.67
74537;SHT31;63013;51.104;-115.370;2022-12-29T12:48:59;18.11;32.61
74537;SHT31;63013;51.104;-115.370;2022-12-29T13:01:31;18.02;32.65
74537;SHT31;63013;51.104;-115.370;2022-12-29T13:10:02;17.98;32.62
74537;SHT31;63013;51.104;-115.370;2022-12-29T13:21:27;17.91;32.69
74537;SHT31;63013;51.104;-115.370;2022-12-29T13:41:07;17.80;32.62
74537;SHT31;63013;51.104;-115.370;2022-12-29T13:43:47;17.80;32.66
74537;SHT31;63013;51.104;-115.370;2022-12-29T13:46:21;17.79;32.64
74537;SHT31;63013;51.104;-115.370;2022-12-29T13:49:04;17.78;32.60
74537;SHT31;63013;51.104;-115.370;2022-12-29T13:51:49;17.77;32.60
74537;SHT31;63013;51.104;-115.370;2022-12-29T13:57:16;17.74;32.62
74537;SHT31;63013;51.104;-115.370;2022-12-29T14:03:01;17.71;32.61
74537;SHT31;63013;51.104;-115.370;2022-12-29T14:06:16;17.69;32.58
74537;SHT31;63013;51.104;-115.370;2022-12-29T14:08:55;17.68;32.61
74537;SHT31;63013;51.104;-115.370;2022-12-29T14:11:39;17.67;32.57
74537;SHT31;63013;51.104;-115.370;2022-12-29T14:14:28;17.67;32.60
74537;SHT31;63013;51.104;-115.370;2022-12-29T14:17:10;17.66;32.62
74537;SHT31;63013;51.104;-115.370;2022-12-29T14:19:44;17.67;32.67
74537;SHT31;63013;51.104;-115.370;2022-12-29T14:22:22;17.69;32.68
74537;SHT31;63013;51.104;-115.370;2022-12-29T14:24:52;17.70;32.71
74537;SHT31;63013;51.104;-115.370;2022-12-29T14:29:48;17.77;32.89
74537;SHT31;63013;51.104;-115.370;2022-12-29T14:34:55;17.83;33.00
74537;SHT31;63013;51.104;-115.370;2022-12-29T14:37:46;17.87;33.07
74537;SHT31;63013;51.104;-115.370;2022-12-29T14:40:17;17.91;33.09
74537;SHT31;63013;51.104;-115.370;2022-12-29T14:42:52;17.95;33.10
74537;SHT31;63013;51.104;-115.370;2022-12-29T14:45:28;18.00;33.10
74537;SHT31;63013;51.104;-115.370;2022-12-29T14:48:02;18.04;33.09
74537;SHT31;63013;51.104;-115.370;2022-12-29T14:54:00;18.14;33.10
74537;SHT31;63013;51.104;-115.370;2022-12-29T14:57:07;18.20;33.11
74537;SHT31;63013;51.104;-115.370;2022-12-29T15:00:22;18.28;33.16
74537;SHT31;63013;51.104;-115.370;2022-12-29T15:03:36;18.34;33.20
74537;SHT31;63013;51.104;-115.370;2022-12-29T15:06:17;18.42;33.23
74537;SHT31;63013;51.104;-115.370;2022-12-29T15:08:49;18.45;33.26
74537;SHT31;63013;51.104;-115.370;2022-12-29T15:14:51;18.59;33.28
74537;SHT31;63013;51.104;-115.370;2022-12-29T15:17:21;18.65;33.27
74537;SHT31;63013;51.104;-115.370;2022-12-29T15:22:56;18.79;33.29
74537;SHT31;63013;51.104;-115.370;2022-12-29T15:25:29;18.85;33.27
74537;SHT31;63013;51.104;-115.370;2022-12-29T15:28:01;18.91;33.28
74537;SHT31;63013;51.104;-115.370;2022-12-29T15:30:32;18.97;33.29
74537;SHT31;63013;51.104;-115.370;2022-12-29T15:32:59;19.01;33.28
74537;SHT31;63013;51.104;-115.370;2022-12-29T15:35:30;19.07;33.28
74537;SHT31;63013;51.104;-115.370;2022-12-29T15:38:15;19.12;33.29
74537;SHT31;63013;51.104;-115.370;2022-12-29T15:40:58;19.18;33.29
74537;SHT31;63013;51.104;-115.370;2022-12-29T15:46:11;19.31;33.28
74537;SHT31;63013;51.104;-115.370;2022-12-29T15:48:39;19.36;33.29
74537;SHT31;63013;51.104;-115.370;2022-12-29T15:51:28;19.42;33.30
74537;SHT31;63013;51.104;-115.370;2022-12-29T15:54:01;19.49;33.34
74537;SHT31;63013;51.104;-115.370;2022-12-29T15:56:29;19.57;33.40
74537;SHT31;63013;51.104;-115.370;2022-12-29T15:58:58;19.64;33.39
74537;SHT31;63013;51.104;-115.370;2022-12-29T16:01:30;19.73;33.39
74537;SHT31;63013;51.104;-115.370;2022-12-29T16:04:08;19.83;33.30
74537;SHT31;63013;51.104;-115.370;2022-12-29T16:06:39;19.91;33.29
74537;SHT31;63013;51.104;-115.370;2022-12-29T16:09:30;20.01;33.21
74537;SHT31;63013;51.104;-115.370;2022-12-29T16:12:04;20.06;33.17
74537;SHT31;63013;51.104;-115.370;2022-12-29T16:14:42;20.08;33.20
74537;SHT31;63013;51.104;-115.370;2022-12-29T16:17:36;20.10;33.20
74537;SHT31;63013;51.104;-115.370;2022-12-29T16:20:25;20.10;33.21
74537;SHT31;63013;51.104;-115.370;2022-12-29T16:23:05;20.10;33.26
74537;SHT31;63013;51.104;-115.370;2022-12-29T16:25:50;20.10;33.30
74537;SHT31;63013;51.104;-115.370;2022-12-29T16:28:21;20.10;33.30
74537;SHT31;63013;51.104;-115.370;2022-12-29T16:31:04;20.11;33.30
74537;SHT31;63013;51.104;-115.370;2022-12-29T16:34:25;20.13;33.28
74537;SHT31;63013;51.104;-115.370;2022-12-29T16:40:26;20.21;33.21
74537;SHT31;63013;51.104;-115.370;2022-12-29T16:42:59;20.26;33.22
74537;SHT31;63013;51.104;-115.370;2022-12-29T16:45:38;20.31;33.21
74537;SHT31;63013;51.104;-115.370;2022-12-29T16:48:23;20.36;33.13
74537;SHT31;63013;51.104;-115.370;2022-12-29T16:51:04;20.39;33.05
74537;SHT31;63013;51.104;-115.370;2022-12-29T16:53:47;20.40;33.01
74537;SHT31;63013;51.104;-115.370;2022-12-29T16:56:23;20.40;33.00
74537;SHT31;63013;51.104;-115.370;2022-12-29T16:59:36;20.40;33.01
74537;SHT31;63013;51.104;-115.370;2022-12-29T17:01:57;20.40;33.04
74537;SHT31;63013;51.104;-115.370;2022-12-29T17:04:31;20.40;33.07
74537;SHT31;63013;51.104;-115.370;2022-12-29T17:06:58;20.40;33.10
74537;SHT31;63013;51.104;-115.370;2022-12-29T17:09:27;20.40;33.10
74537;SHT31;63013;51.104;-115.370;2022-12-29T17:11:59;20.39;33.12
74537;SHT31;63013;51.104;-115.370;2022-12-29T17:17:39;20.37;33.20
74537;SHT31;63013;51.104;-115.370;2022-12-29T17:20:24;20.35;33.21
74537;SHT31;63013;51.104;-115.370;2022-12-29T17:22:55;20.34;33.28
74537;SHT31;63013;51.104;-115.370;2022-12-29T17:25:35;20.33;33.31
74537;SHT31;63013;51.104;-115.370;2022-12-29T17:28:12;20.34;33.35
74537;SHT31;63013;51.104;-115.370;2022-12-29T17:30:52;20.36;33.39
74537;SHT31;63013;51.104;-115.370;2022-12-29T17:33:26;20.38;33.40
74537;SHT31;63013;51.104;-115.370;2022-12-29T17:35:58;20.43;33.41
74537;SHT31;63013;51.104;-115.370;2022-12-29T17:38:30;20.46;33.50
74537;SHT31;63013;51.104;-115.370;2022-12-29T17:41:00;20.49;33.55
74537;SHT31;63013;51.104;-115.370;2022-12-29T17:43:28;20.50;33.55
74537;SHT31;63013;51.104;-115.370;2022-12-29T17:45:56;20.50;33.57
74537;SHT31;63013;51.104;-115.370;2022-12-29T17:48:24;20.49;33.60
74537;SHT31;63013;51.104;-115.370;2022-12-29T17:50:52;20.48;33.58
74537;SHT31;63013;51.104;-115.370;2022-12-29T17:53:23;20.47;33.52
74537;SHT31;63013;51.104;-115.370;2022-12-29T17:55:54;20.46;33.54
74537;SHT31;63013;51.104;-115.370;2022-12-29T17:58:23;20.45;33.53
74537;SHT31;63013;51.104;-115.370;2022-12-29T18:00:54;20.44;33.53
74537;SHT31;63013;51.104;-115.370;2022-12-29T18:03:26;20.43;33.53
74537;SHT31;63013;51.104;-115.370;2022-12-29T18:05:59;20.42;33.54
74537;SHT31;63013;51.104;-115.370;2022-12-29T18:08:30;20.41;33.55
74537;SHT31;63013;51.104;-115.370;2022-12-29T18:11:00;20.40;33.51
74537;SHT31;63013;51.104;-115.370;2022-12-29T18:13:29;20.39;33.66
74537;SHT31;63013;51.104;-115.370;2022-12-29T18:15:59;20.37;33.71
74537;SHT31;63013;51.104;-115.370;2022-12-29T18:18:26;20.37;33.74
74537;SHT31;63013;51.104;-115.370;2022-12-29T18:20:54;20.38;33.97